As, Belgium
Current Conditions -  °F | °C
As of 1:25 PM on Friday 28 Nov 2014 (Local Time) from EHBK Reporting Station
Few Clouds Few Clouds  
Wind Chill: 44°   Ceiling: Unl
Heat Index: 48°   Visibility: 5mi
Dew Point: 43°   Wind: 9mph
Humidity: 82%   Direction: 80°E
Pressure: 29.71"   Gusts: NA
Location:  51.01°N, 5.58°E
Report Text: EHBK 281225Z AUTO 08008KT 8000 FEW015CB 09/06 Q1006 NOSIG
Loading
Personal Weather Stations






























Interactive Weather Map New forecast layout! Learn more

10-Day Weather Forecast

Advertisements
Track Severe Weather on mobile